sensor_id;sensor_type;location;lat;lon;timestamp;temperature;humidity
23102;DHT22;11720;51.214;22.574;2022-08-19T00:01:09;20.30;99.90
23102;DHT22;11720;51.214;22.574;2022-08-19T00:06:01;20.30;99.90
23102;DHT22;11720;51.214;22.574;2022-08-19T00:08:26;20.20;99.90
23102;DHT22;11720;51.214;22.574;2022-08-19T00:10:52;20.30;99.90
23102;DHT22;11720;51.214;22.574;2022-08-19T00:13:18;20.20;99.90
23102;DHT22;11720;51.214;22.574;2022-08-19T00:15:44;20.20;99.90
23102;DHT22;11720;51.214;22.574;2022-08-19T00:18:10;20.20;99.90
23102;DHT22;11720;51.214;22.574;2022-08-19T00:20:36;20.20;99.90
23102;DHT22;11720;51.214;22.574;2022-08-19T00:23:05;20.10;99.90
23102;DHT22;11720;51.214;22.574;2022-08-19T00:25:31;20.10;99.90
23102;DHT22;11720;51.214;22.574;2022-08-19T00:27:57;20.10;99.90
23102;DHT22;11720;51.214;22.574;2022-08-19T00:30:23;20.10;99.90
23102;DHT22;11720;51.214;22.574;2022-08-19T00:32:49;20.10;99.90
23102;DHT22;11720;51.214;22.574;2022-08-19T00:35:15;20.10;99.90
23102;DHT22;11720;51.214;22.574;2022-08-19T00:37:42;20.10;99.90
23102;DHT22;11720;51.214;22.574;2022-08-19T00:40:10;20.10;99.90
23102;DHT22;11720;51.214;22.574;2022-08-19T00:42:36;20.10;99.90
23102;DHT22;11720;51.214;22.574;2022-08-19T00:45:03;20.10;99.90
23102;DHT22;11720;51.214;22.574;2022-08-19T00:47:33;20.00;99.90
23102;DHT22;11720;51.214;22.574;2022-08-19T00:49:59;20.00;99.90
23102;DHT22;11720;51.214;22.574;2022-08-19T00:52:35;20.00;99.90
23102;DHT22;11720;51.214;22.574;2022-08-19T00:55:05;19.90;99.90
23102;DHT22;11720;51.214;22.574;2022-08-19T00:57:38;19.90;99.90
23102;DHT22;11720;51.214;22.574;2022-08-19T01:00:11;19.80;99.90
23102;DHT22;11720;51.214;22.574;2022-08-19T01:02:38;19.80;99.90
23102;DHT22;11720;51.214;22.574;2022-08-19T01:05:08;19.80;99.90
23102;DHT22;11720;51.214;22.574;2022-08-19T01:07:37;19.70;99.90
23102;DHT22;11720;51.214;22.574;2022-08-19T01:10:06;19.70;99.90
23102;DHT22;11720;51.214;22.574;2022-08-19T01:12:32;19.70;99.90
23102;DHT22;11720;51.214;22.574;2022-08-19T01:14:59;19.70;99.90
23102;DHT22;11720;51.214;22.574;2022-08-19T01:17:25;19.70;99.90
23102;DHT22;11720;51.214;22.574;2022-08-19T01:19:51;19.60;99.90
23102;DHT22;11720;51.214;22.574;2022-08-19T01:24:49;19.60;99.90
23102;DHT22;11720;51.214;22.574;2022-08-19T01:27:15;19.60;99.90
23102;DHT22;11720;51.214;22.574;2022-08-19T01:29:43;19.60;99.90
23102;DHT22;11720;51.214;22.574;2022-08-19T01:32:12;19.60;99.90
23102;DHT22;11720;51.214;22.574;2022-08-19T01:34:39;19.50;99.90
23102;DHT22;11720;51.214;22.574;2022-08-19T01:37:09;19.60;99.90
23102;DHT22;11720;51.214;22.574;2022-08-19T01:39:37;19.50;99.90
23102;DHT22;11720;51.214;22.574;2022-08-19T01:42:03;19.50;99.90
23102;DHT22;11720;51.214;22.574;2022-08-19T01:44:30;19.50;99.90
23102;DHT22;11720;51.214;22.574;2022-08-19T01:46:56;19.50;99.90
23102;DHT22;11720;51.214;22.574;2022-08-19T01:49:24;19.40;99.90
23102;DHT22;11720;51.214;22.574;2022-08-19T01:51:52;19.40;99.90
23102;DHT22;11720;51.214;22.574;2022-08-19T01:54:21;19.40;99.90
23102;DHT22;11720;51.214;22.574;2022-08-19T01:56:47;19.40;99.90
23102;DHT22;11720;51.214;22.574;2022-08-19T01:59:17;19.30;99.90
23102;DHT22;11720;51.214;22.574;2022-08-19T02:01:43;19.30;99.90
23102;DHT22;11720;51.214;22.574;2022-08-19T02:04:09;19.30;99.90
23102;DHT22;11720;51.214;22.574;2022-08-19T02:06:35;19.30;99.90
23102;DHT22;11720;51.214;22.574;2022-08-19T02:09:03;19.30;99.90
23102;DHT22;11720;51.214;22.574;2022-08-19T02:11:32;19.20;99.90
23102;DHT22;11720;51.214;22.574;2022-08-19T02:14:00;19.30;99.90
23102;DHT22;11720;51.214;22.574;2022-08-19T02:16:27;19.30;99.90
23102;DHT22;11720;51.214;22.574;2022-08-19T02:21:21;19.10;99.90
23102;DHT22;11720;51.214;22.574;2022-08-19T02:23:47;19.10;99.90
23102;DHT22;11720;51.214;22.574;2022-08-19T02:26:14;19.10;99.90
23102;DHT22;11720;51.214;22.574;2022-08-19T02:28:41;19.10;99.90
23102;DHT22;11720;51.214;22.574;2022-08-19T02:31:15;19.00;99.90
23102;DHT22;11720;51.214;22.574;2022-08-19T02:33:41;19.00;99.90
23102;DHT22;11720;51.214;22.574;2022-08-19T02:36:08;19.10;99.90
23102;DHT22;11720;51.214;22.574;2022-08-19T02:38:34;19.00;99.90
23102;DHT22;11720;51.214;22.574;2022-08-19T02:41:07;19.30;99.90
23102;DHT22;11720;51.214;22.574;2022-08-19T02:43:35;18.70;99.90
23102;DHT22;11720;51.214;22.574;2022-08-19T02:48:37;18.90;99.90
23102;DHT22;11720;51.214;22.574;2022-08-19T02:51:03;18.90;99.90
23102;DHT22;11720;51.214;22.574;2022-08-19T02:58:22;18.90;99.90
23102;DHT22;11720;51.214;22.574;2022-08-19T03:00:52;18.90;99.90
23102;DHT22;11720;51.214;22.574;2022-08-19T03:03:18;18.90;99.90
23102;DHT22;11720;51.214;22.574;2022-08-19T03:05:44;18.90;99.90
23102;DHT22;11720;51.214;22.574;2022-08-19T03:10:45;18.90;99.90
23102;DHT22;11720;51.214;22.574;2022-08-19T03:13:16;18.90;99.90
23102;DHT22;11720;51.214;22.574;2022-08-19T03:15:44;18.90;99.90
23102;DHT22;11720;51.214;22.574;2022-08-19T03:18:11;18.90;99.90
23102;DHT22;11720;51.214;22.574;2022-08-19T03:20:43;18.90;99.90
23102;DHT22;11720;51.214;22.574;2022-08-19T03:23:10;18.90;99.90
23102;DHT22;11720;51.214;22.574;2022-08-19T03:25:38;18.90;99.90
23102;DHT22;11720;51.214;22.574;2022-08-19T03:28:04;18.80;99.90
23102;DHT22;11720;51.214;22.574;2022-08-19T03:30:29;18.80;99.90
23102;DHT22;11720;51.214;22.574;2022-08-19T03:32:55;18.80;99.90
23102;DHT22;11720;51.214;22.574;2022-08-19T03:35:20;18.80;99.90
23102;DHT22;11720;51.214;22.574;2022-08-19T03:37:46;18.70;99.90
23102;DHT22;11720;51.214;22.574;2022-08-19T03:40:12;18.80;99.90
23102;DHT22;11720;51.214;22.574;2022-08-19T03:45:04;18.80;99.90
23102;DHT22;11720;51.214;22.574;2022-08-19T03:47:30;18.80;99.90
23102;DHT22;11720;51.214;22.574;2022-08-19T03:49:55;18.80;99.90
23102;DHT22;11720;51.214;22.574;2022-08-19T03:52:21;18.80;99.90
23102;DHT22;11720;51.214;22.574;2022-08-19T03:54:47;18.90;99.90
23102;DHT22;11720;51.214;22.574;2022-08-19T03:57:12;18.90;99.90
23102;DHT22;11720;51.214;22.574;2022-08-19T03:59:38;18.90;99.90
23102;DHT22;11720;51.214;22.574;2022-08-19T04:02:09;18.90;99.90
23102;DHT22;11720;51.214;22.574;2022-08-19T04:04:37;18.90;99.90
23102;DHT22;11720;51.214;22.574;2022-08-19T04:07:04;18.90;99.90
23102;DHT22;11720;51.214;22.574;2022-08-19T04:09:29;19.00;99.90
23102;DHT22;11720;51.214;22.574;2022-08-19T04:11:58;19.00;99.90
23102;DHT22;11720;51.214;22.574;2022-08-19T04:14:27;19.10;99.90
23102;DHT22;11720;51.214;22.574;2022-08-19T04:16:56;19.20;99.90
23102;DHT22;11720;51.214;22.574;2022-08-19T04:19:21;19.20;99.90
23102;DHT22;11720;51.214;22.574;2022-08-19T04:21:50;19.30;99.90
23102;DHT22;11720;51.214;22.574;2022-08-19T04:24:16;19.30;99.90
23102;DHT22;11720;51.214;22.574;2022-08-19T04:26:42;19.40;99.90
23102;DHT22;11720;51.214;22.574;2022-08-19T04:29:15;19.50;99.90
23102;DHT22;11720;51.214;22.574;2022-08-19T04:31:42;19.50;99.90
23102;DHT22;11720;51.214;22.574;2022-08-19T04:34:11;19.50;99.90
23102;DHT22;11720;51.214;22.574;2022-08-19T04:36:39;19.60;99.90
23102;DHT22;11720;51.214;22.574;2022-08-19T04:39:09;19.70;99.90
23102;DHT22;11720;51.214;22.574;2022-08-19T04:41:35;19.70;99.90
23102;DHT22;11720;51.214;22.574;2022-08-19T04:44:19;19.70;99.90
23102;DHT22;11720;51.214;22.574;2022-08-19T04:46:49;19.80;99.90
23102;DHT22;11720;51.214;22.574;2022-08-19T04:49:17;19.90;99.90
23102;DHT22;11720;51.214;22.574;2022-08-19T04:51:45;20.00;99.90
23102;DHT22;11720;51.214;22.574;2022-08-19T04:54:11;20.10;99.90
23102;DHT22;11720;51.214;22.574;2022-08-19T04:56:37;20.20;99.90
23102;DHT22;11720;51.214;22.574;2022-08-19T04:59:03;20.20;99.90
23102;DHT22;11720;51.214;22.574;2022-08-19T05:01:30;20.40;99.90
23102;DHT22;11720;51.214;22.574;2022-08-19T05:03:59;20.50;99.90
23102;DHT22;11720;51.214;22.574;2022-08-19T05:06:26;20.60;99.90
23102;DHT22;11720;51.214;22.574;2022-08-19T05:08:52;20.70;99.90
23102;DHT22;11720;51.214;22.574;2022-08-19T05:11:24;20.70;99.90
23102;DHT22;11720;51.214;22.574;2022-08-19T05:13:51;20.80;99.90
23102;DHT22;11720;51.214;22.574;2022-08-19T05:16:19;20.80;99.90
23102;DHT22;11720;51.214;22.574;2022-08-19T05:18:46;20.90;99.90
23102;DHT22;11720;51.214;22.574;2022-08-19T05:21:32;20.90;99.90
23102;DHT22;11720;51.214;22.574;2022-08-19T05:24:19;21.00;99.90
23102;DHT22;11720;51.214;22.574;2022-08-19T05:26:47;21.10;99.90
23102;DHT22;11720;51.214;22.574;2022-08-19T05:29:15;21.20;99.90
23102;DHT22;11720;51.214;22.574;2022-08-19T05:31:42;21.30;99.90
23102;DHT22;11720;51.214;22.574;2022-08-19T05:34:08;21.50;99.90
23102;DHT22;11720;51.214;22.574;2022-08-19T05:36:38;21.60;99.90
23102;DHT22;11720;51.214;22.574;2022-08-19T05:39:06;21.60;99.90
23102;DHT22;11720;51.214;22.574;2022-08-19T05:41:32;21.70;99.90
23102;DHT22;11720;51.214;22.574;2022-08-19T05:44:01;21.80;99.90
23102;DHT22;11720;51.214;22.574;2022-08-19T05:46:28;21.90;99.90
23102;DHT22;11720;51.214;22.574;2022-08-19T05:48:54;22.00;99.90
23102;DHT22;11720;51.214;22.574;2022-08-19T05:51:22;22.10;99.90
23102;DHT22;11720;51.214;22.574;2022-08-19T05:53:49;22.20;99.90
23102;DHT22;11720;51.214;22.574;2022-08-19T05:56:16;22.30;99.90
23102;DHT22;11720;51.214;22.574;2022-08-19T05:58:44;22.40;99.90
23102;DHT22;11720;51.214;22.574;2022-08-19T06:01:12;22.50;99.90
23102;DHT22;11720;51.214;22.574;2022-08-19T06:03:39;22.60;99.90
23102;DHT22;11720;51.214;22.574;2022-08-19T06:06:07;22.70;99.90
23102;DHT22;11720;51.214;22.574;2022-08-19T06:08:33;22.80;99.90
23102;DHT22;11720;51.214;22.574;2022-08-19T06:11:16;23.00;99.90
23102;DHT22;11720;51.214;22.574;2022-08-19T06:13:43;23.00;99.90
23102;DHT22;11720;51.214;22.574;2022-08-19T06:16:09;23.20;99.90
23102;DHT22;11720;51.214;22.574;2022-08-19T06:18:34;23.30;99.90
23102;DHT22;11720;51.214;22.574;2022-08-19T06:21:00;23.40;99.90
23102;DHT22;11720;51.214;22.574;2022-08-19T06:23:29;23.60;99.90
23102;DHT22;11720;51.214;22.574;2022-08-19T06:25:56;23.60;99.90
23102;DHT22;11720;51.214;22.574;2022-08-19T06:28:21;23.80;99.90
23102;DHT22;11720;51.214;22.574;2022-08-19T06:30:49;23.90;99.90
23102;DHT22;11720;51.214;22.574;2022-08-19T06:33:15;24.00;99.90
23102;DHT22;11720;51.214;22.574;2022-08-19T06:35:41;24.10;99.90
23102;DHT22;11720;51.214;22.574;2022-08-19T06:38:07;24.20;99.90
23102;DHT22;11720;51.214;22.574;2022-08-19T06:40:33;24.20;99.90
23102;DHT22;11720;51.214;22.574;2022-08-19T06:42:59;24.30;99.90
23102;DHT22;11720;51.214;22.574;2022-08-19T06:45:27;24.40;99.90
23102;DHT22;11720;51.214;22.574;2022-08-19T06:47:53;24.50;99.90
23102;DHT22;11720;51.214;22.574;2022-08-19T06:50:23;24.60;99.90
23102;DHT22;11720;51.214;22.574;2022-08-19T06:52:48;24.60;99.90
23102;DHT22;11720;51.214;22.574;2022-08-19T06:55:15;24.70;99.90
23102;DHT22;11720;51.214;22.574;2022-08-19T06:57:41;24.80;99.90
23102;DHT22;11720;51.214;22.574;2022-08-19T07:00:08;24.90;99.90
23102;DHT22;11720;51.214;22.574;2022-08-19T07:02:41;25.00;99.90
23102;DHT22;11720;51.214;22.574;2022-08-19T07:05:07;25.00;99.90
23102;DHT22;11720;51.214;22.574;2022-08-19T07:07:33;25.20;99.90
23102;DHT22;11720;51.214;22.574;2022-08-19T07:10:00;25.30;99.90
23102;DHT22;11720;51.214;22.574;2022-08-19T07:12:31;25.40;99.90
23102;DHT22;11720;51.214;22.574;2022-08-19T07:14:59;25.50;99.90
23102;DHT22;11720;51.214;22.574;2022-08-19T07:17:27;25.60;99.90
23102;DHT22;11720;51.214;22.574;2022-08-19T07:19:53;25.70;99.90
23102;DHT22;11720;51.214;22.574;2022-08-19T07:22:18;25.80;99.90
23102;DHT22;11720;51.214;22.574;2022-08-19T07:24:45;25.90;99.90
23102;DHT22;11720;51.214;22.574;2022-08-19T07:27:13;26.10;99.90
23102;DHT22;11720;51.214;22.574;2022-08-19T07:29:39;26.20;99.90
23102;DHT22;11720;51.214;22.574;2022-08-19T07:32:06;26.30;99.90
23102;DHT22;11720;51.214;22.574;2022-08-19T07:34:32;26.40;99.90
23102;DHT22;11720;51.214;22.574;2022-08-19T07:37:05;26.40;99.90
23102;DHT22;11720;51.214;22.574;2022-08-19T07:39:34;26.60;99.90
23102;DHT22;11720;51.214;22.574;2022-08-19T07:42:03;26.70;99.90
23102;DHT22;11720;51.214;22.574;2022-08-19T07:44:29;26.80;99.90
23102;DHT22;11720;51.214;22.574;2022-08-19T07:46:56;26.80;99.90
23102;DHT22;11720;51.214;22.574;2022-08-19T07:49:24;26.90;99.90
23102;DHT22;11720;51.214;22.574;2022-08-19T07:52:00;27.00;99.90
23102;DHT22;11720;51.214;22.574;2022-08-19T07:54:28;27.10;99.90
23102;DHT22;11720;51.214;22.574;2022-08-19T07:56:55;27.20;99.90
23102;DHT22;11720;51.214;22.574;2022-08-19T07:59:21;27.30;99.90
23102;DHT22;11720;51.214;22.574;2022-08-19T08:01:47;27.40;99.90
23102;DHT22;11720;51.214;22.574;2022-08-19T08:04:13;27.50;99.90
23102;DHT22;11720;51.214;22.574;2022-08-19T08:06:57;27.60;99.90
23102;DHT22;11720;51.214;22.574;2022-08-19T08:09:43;27.70;99.90
23102;DHT22;11720;51.214;22.574;2022-08-19T08:12:19;27.70;99.90
23102;DHT22;11720;51.214;22.574;2022-08-19T08:14:51;27.70;99.90
23102;DHT22;11720;51.214;22.574;2022-08-19T08:17:19;27.80;99.90
23102;DHT22;11720;51.214;22.574;2022-08-19T08:19:46;27.90;99.90
23102;DHT22;11720;51.214;22.574;2022-08-19T08:22:15;27.90;99.90
23102;DHT22;11720;51.214;22.574;2022-08-19T08:25:03;28.00;99.90
23102;DHT22;11720;51.214;22.574;2022-08-19T08:27:29;28.10;99.90
23102;DHT22;11720;51.214;22.574;2022-08-19T08:29:57;28.10;99.90
23102;DHT22;11720;51.214;22.574;2022-08-19T08:32:23;28.20;99.90
23102;DHT22;11720;51.214;22.574;2022-08-19T08:34:48;28.30;99.90
23102;DHT22;11720;51.214;22.574;2022-08-19T08:37:14;28.40;99.90
23102;DHT22;11720;51.214;22.574;2022-08-19T08:39:40;28.50;99.90
23102;DHT22;11720;51.214;22.574;2022-08-19T08:42:14;28.50;99.90
23102;DHT22;11720;51.214;22.574;2022-08-19T08:45:12;28.50;99.90
23102;DHT22;11720;51.214;22.574;2022-08-19T08:47:41;28.60;99.90
23102;DHT22;11720;51.214;22.574;2022-08-19T08:50:31;28.70;99.90
23102;DHT22;11720;51.214;22.574;2022-08-19T08:53:02;28.80;99.90
23102;DHT22;11720;51.214;22.574;2022-08-19T08:55:30;28.80;99.90
23102;DHT22;11720;51.214;22.574;2022-08-19T08:58:02;28.90;99.90
23102;DHT22;11720;51.214;22.574;2022-08-19T09:00:32;28.90;99.90
23102;DHT22;11720;51.214;22.574;2022-08-19T09:03:00;29.00;99.90
23102;DHT22;11720;51.214;22.574;2022-08-19T09:05:47;29.10;99.90
23102;DHT22;11720;51.214;22.574;2022-08-19T09:08:43;29.20;99.90
23102;DHT22;11720;51.214;22.574;2022-08-19T09:11:19;29.20;99.90
23102;DHT22;11720;51.214;22.574;2022-08-19T09:16:30;29.30;99.90
23102;DHT22;11720;51.214;22.574;2022-08-19T09:18:58;29.40;99.90
23102;DHT22;11720;51.214;22.574;2022-08-19T09:21:26;29.50;99.90
23102;DHT22;11720;51.214;22.574;2022-08-19T09:23:53;29.60;99.90
23102;DHT22;11720;51.214;22.574;2022-08-19T09:26:22;29.60;99.90
23102;DHT22;11720;51.214;22.574;2022-08-19T09:28:50;29.80;99.90
23102;DHT22;11720;51.214;22.574;2022-08-19T09:31:19;29.70;99.90
23102;DHT22;11720;51.214;22.574;2022-08-19T09:33:45;29.90;99.90
23102;DHT22;11720;51.214;22.574;2022-08-19T09:36:14;30.00;99.90
23102;DHT22;11720;51.214;22.574;2022-08-19T09:38:41;30.00;99.90
23102;DHT22;11720;51.214;22.574;2022-08-19T09:41:09;30.10;99.60
23102;DHT22;11720;51.214;22.574;2022-08-19T09:43:36;30.20;98.40
23102;DHT22;11720;51.214;22.574;2022-08-19T09:46:04;30.20;99.80
23102;DHT22;11720;51.214;22.574;2022-08-19T09:48:32;30.40;98.70
23102;DHT22;11720;51.214;22.574;2022-08-19T09:51:11;30.40;96.10
23102;DHT22;11720;51.214;22.574;2022-08-19T09:53:38;30.40;94.50
23102;DHT22;11720;51.214;22.574;2022-08-19T09:56:05;30.50;95.10
23102;DHT22;11720;51.214;22.574;2022-08-19T09:58:32;30.70;93.00
23102;DHT22;11720;51.214;22.574;2022-08-19T10:00:59;30.70;92.10
23102;DHT22;11720;51.214;22.574;2022-08-19T10:03:25;30.70;92.80
23102;DHT22;11720;51.214;22.574;2022-08-19T10:05:51;30.70;93.40
23102;DHT22;11720;51.214;22.574;2022-08-19T10:08:30;30.90;93.80
23102;DHT22;11720;51.214;22.574;2022-08-19T10:10:57;31.00;90.90
23102;DHT22;11720;51.214;22.574;2022-08-19T10:13:24;31.00;90.00
23102;DHT22;11720;51.214;22.574;2022-08-19T10:16:01;31.10;88.90
23102;DHT22;11720;51.214;22.574;2022-08-19T10:18:27;31.20;91.50
23102;DHT22;11720;51.214;22.574;2022-08-19T10:23:33;31.40;87.10
23102;DHT22;11720;51.214;22.574;2022-08-19T10:26:00;31.40;85.40
23102;DHT22;11720;51.214;22.574;2022-08-19T10:28:26;31.40;86.50
23102;DHT22;11720;51.214;22.574;2022-08-19T10:30:51;31.40;84.10
23102;DHT22;11720;51.214;22.574;2022-08-19T10:33:18;31.50;82.20
23102;DHT22;11720;51.214;22.574;2022-08-19T10:35:44;31.60;82.40
23102;DHT22;11720;51.214;22.574;2022-08-19T10:38:12;31.90;81.60
23102;DHT22;11720;51.214;22.574;2022-08-19T10:40:37;31.90;77.50
23102;DHT22;11720;51.214;22.574;2022-08-19T10:43:03;31.90;77.40
23102;DHT22;11720;51.214;22.574;2022-08-19T10:45:29;31.90;79.50
23102;DHT22;11720;51.214;22.574;2022-08-19T10:47:55;32.00;77.30
23102;DHT22;11720;51.214;22.574;2022-08-19T10:50:24;32.00;77.60
23102;DHT22;11720;51.214;22.574;2022-08-19T10:53:08;32.20;78.20
23102;DHT22;11720;51.214;22.574;2022-08-19T10:55:34;32.30;76.70
23102;DHT22;11720;51.214;22.574;2022-08-19T10:58:20;32.40;79.80
23102;DHT22;11720;51.214;22.574;2022-08-19T11:00:53;32.40;74.10
23102;DHT22;11720;51.214;22.574;2022-08-19T11:03:19;32.40;76.90
23102;DHT22;11720;51.214;22.574;2022-08-19T11:05:44;32.40;75.60
23102;DHT22;11720;51.214;22.574;2022-08-19T11:08:10;32.40;78.50
23102;DHT22;11720;51.214;22.574;2022-08-19T11:10:40;32.30;76.40
23102;DHT22;11720;51.214;22.574;2022-08-19T11:13:06;32.30;75.70
23102;DHT22;11720;51.214;22.574;2022-08-19T11:15:32;32.40;80.40
23102;DHT22;11720;51.214;22.574;2022-08-19T11:17:58;32.40;75.50
23102;DHT22;11720;51.214;22.574;2022-08-19T11:20:24;32.30;73.50
23102;DHT22;11720;51.214;22.574;2022-08-19T11:22:52;32.20;73.30
23102;DHT22;11720;51.214;22.574;2022-08-19T11:25:19;32.20;73.10
23102;DHT22;11720;51.214;22.574;2022-08-19T11:27:44;32.20;76.20
23102;DHT22;11720;51.214;22.574;2022-08-19T11:30:13;32.20;74.60
23102;DHT22;11720;51.214;22.574;2022-08-19T11:32:42;32.10;73.10
23102;DHT22;11720;51.214;22.574;2022-08-19T11:35:08;32.10;72.50
23102;DHT22;11720;51.214;22.574;2022-08-19T11:37:34;32.10;73.80
23102;DHT22;11720;51.214;22.574;2022-08-19T11:40:04;32.10;75.10
23102;DHT22;11720;51.214;22.574;2022-08-19T11:42:30;31.90;75.50
23102;DHT22;11720;51.214;22.574;2022-08-19T11:45:14;31.90;73.70
23102;DHT22;11720;51.214;22.574;2022-08-19T11:47:39;32.00;75.20
23102;DHT22;11720;51.214;22.574;2022-08-19T11:50:05;32.00;74.70
23102;DHT22;11720;51.214;22.574;2022-08-19T11:52:31;32.00;73.30
23102;DHT22;11720;51.214;22.574;2022-08-19T11:54:57;32.00;74.40
23102;DHT22;11720;51.214;22.574;2022-08-19T11:57:22;32.00;73.70
23102;DHT22;11720;51.214;22.574;2022-08-19T11:59:49;32.20;73.90
23102;DHT22;11720;51.214;22.574;2022-08-19T12:02:15;32.10;72.00
23102;DHT22;11720;51.214;22.574;2022-08-19T12:04:41;32.20;70.60
23102;DHT22;11720;51.214;22.574;2022-08-19T12:07:06;32.10;72.00
23102;DHT22;11720;51.214;22.574;2022-08-19T12:09:32;32.20;70.10
23102;DHT22;11720;51.214;22.574;2022-08-19T12:12:00;32.10;71.00
23102;DHT22;11720;51.214;22.574;2022-08-19T12:14:27;32.20;72.90
23102;DHT22;11720;51.214;22.574;2022-08-19T12:16:55;32.10;70.90
23102;DHT22;11720;51.214;22.574;2022-08-19T12:19:21;32.20;71.10
23102;DHT22;11720;51.214;22.574;2022-08-19T12:21:47;32.20;70.60
23102;DHT22;11720;51.214;22.574;2022-08-19T12:24:13;32.30;72.40
23102;DHT22;11720;51.214;22.574;2022-08-19T12:26:38;32.20;73.10
23102;DHT22;11720;51.214;22.574;2022-08-19T12:29:04;32.20;73.70
23102;DHT22;11720;51.214;22.574;2022-08-19T12:31:30;32.30;71.70
23102;DHT22;11720;51.214;22.574;2022-08-19T12:33:56;32.20;71.30
23102;DHT22;11720;51.214;22.574;2022-08-19T12:36:22;32.20;72.70
23102;DHT22;11720;51.214;22.574;2022-08-19T12:38:48;32.30;72.60
23102;DHT22;11720;51.214;22.574;2022-08-19T12:41:15;32.40;71.90
23102;DHT22;11720;51.214;22.574;2022-08-19T12:43:43;32.40;72.70
23102;DHT22;11720;51.214;22.574;2022-08-19T12:46:10;32.60;74.70
23102;DHT22;11720;51.214;22.574;2022-08-19T12:48:36;32.60;72.10
23102;DHT22;11720;51.214;22.574;2022-08-19T12:51:10;32.60;72.50
23102;DHT22;11720;51.214;22.574;2022-08-19T12:53:37;32.60;71.50
23102;DHT22;11720;51.214;22.574;2022-08-19T12:56:03;32.50;74.10
23102;DHT22;11720;51.214;22.574;2022-08-19T12:58:30;32.40;72.20
23102;DHT22;11720;51.214;22.574;2022-08-19T13:00:56;32.40;71.70
23102;DHT22;11720;51.214;22.574;2022-08-19T13:03:22;32.50;73.00
23102;DHT22;11720;51.214;22.574;2022-08-19T13:05:52;32.50;71.40
23102;DHT22;11720;51.214;22.574;2022-08-19T13:08:18;32.50;71.00
23102;DHT22;11720;51.214;22.574;2022-08-19T13:10:43;32.40;70.90
23102;DHT22;11720;51.214;22.574;2022-08-19T13:13:09;32.30;71.40
23102;DHT22;11720;51.214;22.574;2022-08-19T13:15:37;32.10;70.20
23102;DHT22;11720;51.214;22.574;2022-08-19T13:18:05;32.20;71.90
23102;DHT22;11720;51.214;22.574;2022-08-19T13:20:31;32.20;72.70
23102;DHT22;11720;51.214;22.574;2022-08-19T13:22:56;32.20;71.20
23102;DHT22;11720;51.214;22.574;2022-08-19T13:25:22;32.20;73.30
23102;DHT22;11720;51.214;22.574;2022-08-19T13:27:49;32.20;73.40
23102;DHT22;11720;51.214;22.574;2022-08-19T13:30:17;32.20;71.90
23102;DHT22;11720;51.214;22.574;2022-08-19T13:33:01;32.10;71.00
23102;DHT22;11720;51.214;22.574;2022-08-19T13:35:37;32.20;74.10
23102;DHT22;11720;51.214;22.574;2022-08-19T13:38:03;32.10;73.90
23102;DHT22;11720;51.214;22.574;2022-08-19T13:40:31;32.00;73.60
23102;DHT22;11720;51.214;22.574;2022-08-19T13:43:00;31.90;73.80
23102;DHT22;11720;51.214;22.574;2022-08-19T13:45:27;31.80;71.80
23102;DHT22;11720;51.214;22.574;2022-08-19T13:47:55;31.80;74.20
23102;DHT22;11720;51.214;22.574;2022-08-19T13:50:27;31.70;72.70
23102;DHT22;11720;51.214;22.574;2022-08-19T13:52:54;31.70;73.40
23102;DHT22;11720;51.214;22.574;2022-08-19T13:55:20;31.80;75.10
23102;DHT22;11720;51.214;22.574;2022-08-19T13:57:54;31.70;76.30
23102;DHT22;11720;51.214;22.574;2022-08-19T14:00:21;31.70;74.30
23102;DHT22;11720;51.214;22.574;2022-08-19T14:02:47;31.80;76.00
23102;DHT22;11720;51.214;22.574;2022-08-19T14:05:16;31.80;76.10
23102;DHT22;11720;51.214;22.574;2022-08-19T14:07:41;31.80;75.60
23102;DHT22;11720;51.214;22.574;2022-08-19T14:10:10;31.80;76.50
23102;DHT22;11720;51.214;22.574;2022-08-19T14:12:36;31.60;76.80
23102;DHT22;11720;51.214;22.574;2022-08-19T14:15:03;31.50;76.30
23102;DHT22;11720;51.214;22.574;2022-08-19T14:17:29;31.40;76.60
23102;DHT22;11720;51.214;22.574;2022-08-19T14:19:59;31.40;77.50
23102;DHT22;11720;51.214;22.574;2022-08-19T14:22:33;31.40;77.80
23102;DHT22;11720;51.214;22.574;2022-08-19T14:24:58;31.30;77.70
23102;DHT22;11720;51.214;22.574;2022-08-19T14:27:24;31.30;78.60
23102;DHT22;11720;51.214;22.574;2022-08-19T14:29:51;31.30;79.30
23102;DHT22;11720;51.214;22.574;2022-08-19T14:32:17;31.20;78.50
23102;DHT22;11720;51.214;22.574;2022-08-19T14:34:43;31.20;79.70
23102;DHT22;11720;51.214;22.574;2022-08-19T14:37:12;31.20;79.70
23102;DHT22;11720;51.214;22.574;2022-08-19T14:39:40;31.20;79.20
23102;DHT22;11720;51.214;22.574;2022-08-19T14:42:09;31.10;79.40
23102;DHT22;11720;51.214;22.574;2022-08-19T14:44:36;31.10;79.40
23102;DHT22;11720;51.214;22.574;2022-08-19T14:47:01;31.00;78.80
23102;DHT22;11720;51.214;22.574;2022-08-19T14:49:27;30.90;79.80
23102;DHT22;11720;51.214;22.574;2022-08-19T14:51:53;30.80;80.10
23102;DHT22;11720;51.214;22.574;2022-08-19T14:54:18;30.80;80.30
23102;DHT22;11720;51.214;22.574;2022-08-19T14:56:44;30.70;79.50
23102;DHT22;11720;51.214;22.574;2022-08-19T14:59:10;30.70;80.00
23102;DHT22;11720;51.214;22.574;2022-08-19T15:01:35;30.60;80.80
23102;DHT22;11720;51.214;22.574;2022-08-19T15:04:01;30.50;80.90
23102;DHT22;11720;51.214;22.574;2022-08-19T15:06:27;30.50;79.80
23102;DHT22;11720;51.214;22.574;2022-08-19T15:08:53;30.40;79.80
23102;DHT22;11720;51.214;22.574;2022-08-19T15:11:22;30.30;80.20
23102;DHT22;11720;51.214;22.574;2022-08-19T15:13:48;30.30;81.10
23102;DHT22;11720;51.214;22.574;2022-08-19T15:16:16;30.30;81.80
23102;DHT22;11720;51.214;22.574;2022-08-19T15:18:42;30.20;80.30
23102;DHT22;11720;51.214;22.574;2022-08-19T15:21:11;30.20;81.80
23102;DHT22;11720;51.214;22.574;2022-08-19T15:23:39;30.10;81.90
23102;DHT22;11720;51.214;22.574;2022-08-19T15:26:05;30.10;81.90
23102;DHT22;11720;51.214;22.574;2022-08-19T15:28:35;30.10;82.00
23102;DHT22;11720;51.214;22.574;2022-08-19T15:31:01;30.10;81.00
23102;DHT22;11720;51.214;22.574;2022-08-19T15:33:27;30.10;83.50
23102;DHT22;11720;51.214;22.574;2022-08-19T15:35:53;30.00;81.00
23102;DHT22;11720;51.214;22.574;2022-08-19T15:38:20;29.90;81.60
23102;DHT22;11720;51.214;22.574;2022-08-19T15:40:50;29.90;81.90
23102;DHT22;11720;51.214;22.574;2022-08-19T15:43:16;29.90;83.20
23102;DHT22;11720;51.214;22.574;2022-08-19T15:45:46;30.00;81.20